Terminal Aerodrome Forecast
Issued by NWS Salt Lake City, UT

Home | Current Version | Previous Version | Text Only | Print | Product List | Glossary On
Versions: 1 2 3 4 5 6 7 8 9 10 11 12 13 14 15 16 17 18 19 20 21 22 23 24 25 26
000
FTUS45 KSLC 180533
TAFCDC
TAF
KCDC 180533Z 1806/1906 16008KT P6SM SCT250
     FM180900 VRB05KT P6SM SCT250
     FM181700 23011KT P6SM BKN250
     FM190300 16006KT P6SM BKN180=

USA.gov is the U.S. government's official web portal to all federal, state and local government web resources and services.